createdAt,value
2022-10-01T00:01:13.351Z,6.40
2022-10-01T00:03:40.541Z,6.23
2022-10-01T00:06:11.063Z,6.53
2022-10-01T00:08:39.389Z,7.13
2022-10-01T00:11:14.506Z,7.47
2022-10-01T00:13:43.456Z,7.57
2022-10-01T00:16:13.192Z,7.43
2022-10-01T00:18:41.482Z,7.85
2022-10-01T00:21:23.150Z,7.93
2022-10-01T00:24:01.427Z,7.72
2022-10-01T00:26:31.051Z,8.77
2022-10-01T00:29:00.592Z,7.93
2022-10-01T00:31:27.943Z,8.90
2022-10-01T00:33:55.864Z,8.68
2022-10-01T00:36:22.560Z,8.50
2022-10-01T00:38:48.947Z,8.43
2022-10-01T00:41:16.686Z,8.63
2022-10-01T00:43:49.816Z,10.02
2022-10-01T00:46:25.077Z,9.93
2022-10-01T00:48:51.619Z,9.35
2022-10-01T00:51:18.351Z,9.57
2022-10-01T00:53:45.836Z,9.17
2022-10-01T00:56:12.223Z,10.20
2022-10-01T00:58:39.359Z,10.25
2022-10-01T01:01:05.917Z,8.65
2022-10-01T01:03:32.346Z,10.25
2022-10-01T01:05:58.671Z,9.83
2022-10-01T01:08:25.096Z,9.93
2022-10-01T01:11:08.281Z,9.70
2022-10-01T01:13:50.177Z,9.52
2022-10-01T01:16:35.305Z,9.77
2022-10-01T01:19:04.489Z,10.03
2022-10-01T01:21:42.542Z,10.70
2022-10-01T01:24:25.959Z,10.20
2022-10-01T01:27:13.761Z,10.27
2022-10-01T01:29:43.688Z,9.90
2022-10-01T01:32:18.244Z,11.03
2022-10-01T01:34:50.142Z,9.32
2022-10-01T01:37:20.578Z,8.55
2022-10-01T01:39:50.942Z,9.50
2022-10-01T01:42:24.027Z,9.82
2022-10-01T01:44:54.286Z,10.17
2022-10-01T01:47:24.444Z,10.60
2022-10-01T01:49:53.225Z,10.90
2022-10-01T01:52:19.737Z,11.05
2022-10-01T01:54:49.644Z,10.75
2022-10-01T01:57:19.296Z,10.97
2022-10-01T01:59:45.960Z,10.60
2022-10-01T02:02:16.230Z,10.95
2022-10-01T02:04:54.883Z,9.23
2022-10-01T02:07:36.467Z,10.40
2022-10-01T02:10:49.395Z,10.10
2022-10-01T02:13:25.212Z,10.98
2022-10-01T02:15:55.136Z,10.73
2022-10-01T02:18:36.947Z,11.32
2022-10-01T02:21:17.031Z,10.05
2022-10-01T02:24:05.861Z,11.47
2022-10-01T02:26:35.024Z,9.63
2022-10-01T02:29:06.844Z,11.43
2022-10-01T02:31:34.038Z,9.60
2022-10-01T02:34:02.450Z,10.20
2022-10-01T02:36:31.234Z,11.40
2022-10-01T02:39:00.753Z,11.20
2022-10-01T02:41:32.228Z,9.70
2022-10-01T02:44:09.768Z,10.05
2022-10-01T02:47:18.073Z,10.73
2022-10-01T02:49:44.635Z,10.47
2022-10-01T02:52:27.895Z,10.93
2022-10-01T02:55:08.690Z,9.90
2022-10-01T02:57:36.443Z,9.93
2022-10-01T03:00:08.094Z,9.73
2022-10-01T03:02:34.747Z,9.40
2022-10-01T03:05:01.958Z,9.70
2022-10-01T03:07:30.454Z,9.77
2022-10-01T03:09:59.476Z,10.43
2022-10-01T03:12:25.925Z,10.60
2022-10-01T03:14:53.013Z,10.00
2022-10-01T03:17:19.847Z,8.80
2022-10-01T03:19:46.207Z,9.63
2022-10-01T03:22:15.009Z,10.07
2022-10-01T03:24:41.367Z,8.90
2022-10-01T03:27:07.778Z,9.00
2022-10-01T03:29:34.182Z,7.22
2022-10-01T03:32:00.744Z,7.40
2022-10-01T03:34:27.422Z,6.43
2022-10-01T03:36:54.822Z,7.07
2022-10-01T03:39:21.190Z,7.33
2022-10-01T03:41:47.547Z,7.07
2022-10-01T03:44:14.177Z,6.53
2022-10-01T03:46:40.551Z,6.88
2022-10-01T03:49:06.913Z,6.70
2022-10-01T03:51:33.792Z,6.37
2022-10-01T03:54:00.437Z,6.32
2022-10-01T03:56:26.902Z,6.40
2022-10-01T03:58:53.490Z,6.43
2022-10-01T04:01:20.301Z,6.00
2022-10-01T04:03:47.104Z,5.37
2022-10-01T04:06:13.594Z,5.43
2022-10-01T04:08:40.256Z,5.50
2022-10-01T04:11:07.450Z,5.78
2022-10-01T04:13:34.821Z,5.43
2022-10-01T04:16:02.508Z,5.63
2022-10-01T04:18:29.330Z,4.93
2022-10-01T04:20:55.684Z,5.07
2022-10-01T04:23:22.592Z,4.50
2022-10-01T04:25:49.143Z,4.30
2022-10-01T04:28:15.584Z,4.60
2022-10-01T04:30:43.941Z,4.40
2022-10-01T04:33:16.029Z,3.42
2022-10-01T04:35:43.495Z,3.50
2022-10-01T04:38:15.024Z,4.00
2022-10-01T04:40:41.697Z,3.90
2022-10-01T04:43:09.669Z,3.65
2022-10-01T04:45:39.370Z,3.70
2022-10-01T04:48:05.827Z,3.72
2022-10-01T04:50:33.027Z,3.95
2022-10-01T04:52:59.620Z,4.10
2022-10-01T04:55:26.103Z,3.95
2022-10-01T04:57:52.551Z,4.70
2022-10-01T05:00:22.028Z,4.00
2022-10-01T05:02:49.731Z,4.05
2022-10-01T05:05:18.137Z,3.93
2022-10-01T05:07:45.503Z,3.72
2022-10-01T05:10:13.832Z,4.00
2022-10-01T05:12:41.403Z,3.50
2022-10-01T05:15:08.429Z,3.65
2022-10-01T05:17:35.907Z,3.33
2022-10-01T05:20:04.828Z,3.20
2022-10-01T05:22:32.042Z,3.00
2022-10-01T05:25:00.300Z,3.50
2022-10-01T05:27:27.666Z,3.35
2022-10-01T05:29:54.037Z,3.60
2022-10-01T05:32:20.402Z,3.70
2022-10-01T05:34:49.984Z,3.92
2022-10-01T05:37:19.800Z,3.60
2022-10-01T05:39:46.182Z,4.00
2022-10-01T05:42:12.547Z,3.63
2022-10-01T05:44:40.807Z,3.90
2022-10-01T05:47:07.550Z,3.95
2022-10-01T05:49:34.116Z,3.90
2022-10-01T05:52:01.087Z,4.15
2022-10-01T05:54:29.507Z,4.40
2022-10-01T05:56:56.984Z,4.15
2022-10-01T05:59:28.402Z,4.40
2022-10-01T06:01:57.776Z,4.50
2022-10-01T06:04:24.404Z,4.32
2022-10-01T06:06:50.783Z,4.20
2022-10-01T06:09:17.319Z,4.72
2022-10-01T06:11:43.654Z,4.78
2022-10-01T06:14:10.005Z,4.95
2022-10-01T06:16:36.428Z,5.15
2022-10-01T06:19:02.970Z,5.40
2022-10-01T06:21:30.301Z,4.80
2022-10-01T06:23:56.724Z,5.50
2022-10-01T06:26:23.391Z,5.43
2022-10-01T06:28:50.708Z,4.72
2022-10-01T06:31:18.123Z,5.47
2022-10-01T06:33:44.574Z,6.03
2022-10-01T06:36:10.928Z,5.90
2022-10-01T06:38:37.324Z,5.90
2022-10-01T06:41:06.394Z,6.32
2022-10-01T06:43:33.568Z,5.77
2022-10-01T06:46:05.050Z,6.05
2022-10-01T06:48:32.353Z,6.22
2022-10-01T06:50:59.408Z,6.28
2022-10-01T06:53:27.464Z,6.60
2022-10-01T06:55:54.519Z,6.57
2022-10-01T06:58:23.114Z,6.28
2022-10-01T07:00:49.932Z,6.55
2022-10-01T07:03:21.394Z,6.78
2022-10-01T07:05:49.164Z,7.07
2022-10-01T07:08:16.067Z,7.40
2022-10-01T07:10:44.053Z,7.00
2022-10-01T07:13:16.561Z,7.22
2022-10-01T07:15:43.636Z,7.10
2022-10-01T07:18:11.063Z,7.07
2022-10-01T07:20:41.825Z,7.50
2022-10-01T07:23:11.780Z,7.35
2022-10-01T07:25:39.385Z,6.90
2022-10-01T07:28:07.923Z,7.20
2022-10-01T07:30:34.672Z,6.57
2022-10-01T07:33:01.057Z,6.50
2022-10-01T07:35:28.445Z,6.47
2022-10-01T07:37:55.267Z,6.13
2022-10-01T07:40:21.879Z,6.68
2022-10-01T07:42:55.777Z,6.82
2022-10-01T07:45:23.420Z,5.90
2022-10-01T07:47:57.419Z,5.50
2022-10-01T07:50:24.470Z,5.45
2022-10-01T07:52:56.059Z,5.60
2022-10-01T07:55:26.417Z,4.90
2022-10-01T07:57:54.172Z,5.40
2022-10-01T08:00:21.723Z,4.40
2022-10-01T08:02:53.571Z,4.35
2022-10-01T08:05:22.711Z,4.28
2022-10-01T08:07:50.243Z,4.43
2022-10-01T08:10:19.448Z,4.30
2022-10-01T08:12:46.545Z,4.82
2022-10-01T08:15:15.438Z,4.85
2022-10-01T08:17:42.448Z,4.50
2022-10-01T08:20:10.902Z,3.60
2022-10-01T08:22:41.837Z,3.60
2022-10-01T08:25:09.747Z,3.47
2022-10-01T08:27:36.627Z,3.10
2022-10-01T08:30:03.805Z,2.30
2022-10-01T08:32:31.157Z,2.53
2022-10-01T08:34:58.924Z,2.60
2022-10-01T08:37:29.693Z,2.47
2022-10-01T08:39:56.428Z,2.45
2022-10-01T08:42:33.375Z,2.25
2022-10-01T08:45:05.280Z,1.70
2022-10-01T08:47:38.735Z,1.77
2022-10-01T08:50:19.295Z,1.73
2022-10-01T08:52:57.087Z,1.38
2022-10-01T08:55:27.952Z,1.55
2022-10-01T08:58:03.809Z,1.80
2022-10-01T09:00:33.396Z,1.80
2022-10-01T09:03:05.720Z,1.80
2022-10-01T09:05:38.640Z,1.67
2022-10-01T09:08:46.392Z,1.80
2022-10-01T09:11:38.015Z,2.00
2022-10-01T09:14:10.940Z,1.97
2022-10-01T09:16:49.820Z,2.08
2022-10-01T09:19:34.459Z,1.90
2022-10-01T09:22:10.567Z,1.90
2022-10-01T09:24:54.973Z,1.83
2022-10-01T09:27:31.454Z,1.97
2022-10-01T09:30:01.513Z,1.85
2022-10-01T09:32:35.971Z,1.83
2022-10-01T09:35:15.215Z,1.95
2022-10-01T09:37:54.619Z,2.25
2022-10-01T09:40:34.539Z,1.73
2022-10-01T09:43:02.827Z,1.80
2022-10-01T09:45:29.348Z,1.52
2022-10-01T09:48:04.618Z,1.60
2022-10-01T09:50:40.061Z,1.75
2022-10-01T09:53:16.012Z,1.50
2022-10-01T09:55:47.841Z,1.88
2022-10-01T09:58:24.038Z,1.92
2022-10-01T10:00:52.222Z,1.20
2022-10-01T10:03:28.708Z,1.88
2022-10-01T10:05:55.777Z,1.50
2022-10-01T10:08:31.990Z,1.48
2022-10-01T10:11:05.961Z,1.33
2022-10-01T10:13:35.241Z,1.90
2022-10-01T10:16:24.536Z,1.42
2022-10-01T10:18:52.371Z,1.30
2022-10-01T10:21:23.238Z,1.50
2022-10-01T10:23:52.215Z,1.30
2022-10-01T10:26:22.115Z,1.30
2022-10-01T10:28:48.547Z,1.42
2022-10-01T10:31:22.443Z,1.20
2022-10-01T10:33:53.646Z,1.35
2022-10-01T10:36:24.498Z,1.00
2022-10-01T10:38:53.648Z,1.00
2022-10-01T10:41:26.165Z,1.13
2022-10-01T10:43:57.618Z,0.90
2022-10-01T10:46:33.764Z,1.00
2022-10-01T10:49:07.632Z,0.77
2022-10-01T10:51:53.718Z,0.90
2022-10-01T10:54:31.747Z,0.98
2022-10-01T10:57:02.646Z,0.67
2022-10-01T10:59:32.040Z,0.63
2022-10-01T11:02:04.891Z,0.60
2022-10-01T11:04:43.661Z,0.65
2022-10-01T11:07:11.519Z,0.55
2022-10-01T11:09:37.783Z,0.70
2022-10-01T11:12:38.491Z,0.63
2022-10-01T11:15:33.681Z,0.60
2022-10-01T11:18:09.290Z,0.90
2022-10-01T11:20:51.821Z,0.60
2022-10-01T11:23:37.553Z,0.63
2022-10-01T11:26:14.359Z,0.80
2022-10-01T11:28:49.819Z,0.90
2022-10-01T11:31:22.549Z,0.80
2022-10-01T11:34:04.138Z,0.80
2022-10-01T11:36:54.689Z,0.80
2022-10-01T11:39:25.323Z,0.90
2022-10-01T11:42:10.283Z,0.75
2022-10-01T11:44:44.807Z,0.93
2022-10-01T11:47:20.730Z,0.85
2022-10-01T11:49:50.121Z,1.00
2022-10-01T11:52:40.452Z,0.90
2022-10-01T11:55:37.078Z,0.90
2022-10-01T11:58:54.191Z,1.17
2022-10-01T12:01:23.808Z,0.70
2022-10-01T12:03:53.097Z,0.90
2022-10-01T12:06:43.342Z,0.65
2022-10-01T12:09:17.446Z,1.00
2022-10-01T12:12:01.144Z,1.00
2022-10-01T12:14:56.321Z,0.80
2022-10-01T12:17:31.206Z,0.93
2022-10-01T12:19:59.764Z,1.13
2022-10-01T12:22:33.280Z,1.10
2022-10-01T12:24:59.730Z,1.17
2022-10-01T12:27:40.994Z,1.02
2022-10-01T12:30:19.139Z,1.10
2022-10-01T12:33:08.517Z,1.00
2022-10-01T12:36:04.551Z,1.23
2022-10-01T12:38:59.051Z,0.95
2022-10-01T12:41:39.851Z,1.40
2022-10-01T12:44:20.066Z,1.17
2022-10-01T12:47:12.368Z,1.30
2022-10-01T12:49:41.393Z,1.30
2022-10-01T12:52:25.459Z,1.30
2022-10-01T12:55:13.713Z,1.10
2022-10-01T12:58:15.295Z,1.37
2022-10-01T13:00:54.653Z,1.23
2022-10-01T13:03:43.036Z,1.40
2022-10-01T13:06:40.876Z,1.30
2022-10-01T13:09:13.292Z,1.08
2022-10-01T13:12:03.101Z,1.23
2022-10-01T13:14:33.039Z,1.10
2022-10-01T13:17:02.801Z,1.02
2022-10-01T13:19:45.126Z,1.33
2022-10-01T13:22:32.365Z,0.95
2022-10-01T13:25:25.039Z,1.03
2022-10-01T13:28:09.528Z,1.20
2022-10-01T13:30:59.190Z,1.00
2022-10-01T13:33:36.039Z,1.13
2022-10-01T13:36:05.182Z,0.90
2022-10-01T13:38:37.368Z,1.10
2022-10-01T13:41:22.854Z,1.00
2022-10-01T13:44:03.984Z,1.10
2022-10-01T13:46:33.806Z,1.33
2022-10-01T13:49:07.435Z,1.10
2022-10-01T13:51:36.186Z,1.00
2022-10-01T13:54:03.922Z,0.77
2022-10-01T13:56:37.235Z,0.80
2022-10-01T13:59:20.567Z,0.80
2022-10-01T14:01:46.968Z,1.02
2022-10-01T14:04:19.494Z,1.03
2022-10-01T14:06:52.728Z,0.75
2022-10-01T14:09:24.058Z,0.80
2022-10-01T14:12:24.818Z,0.95
2022-10-01T14:15:14.145Z,1.13
2022-10-01T14:17:43.233Z,0.90
2022-10-01T14:20:17.835Z,1.30
2022-10-01T14:23:01.926Z,1.40
2022-10-01T14:25:53.647Z,1.38
2022-10-01T14:28:20.269Z,0.98
2022-10-01T14:30:51.944Z,0.63
2022-10-01T14:33:39.080Z,0.77
2022-10-01T14:36:14.516Z,0.60
2022-10-01T14:38:43.023Z,0.63
2022-10-01T14:41:24.349Z,0.95
2022-10-01T14:43:50.706Z,0.93
2022-10-01T14:46:18.610Z,0.80
2022-10-01T14:48:45.039Z,1.10
2022-10-01T14:51:29.992Z,1.02
2022-10-01T14:54:00.461Z,1.10
2022-10-01T14:56:28.596Z,0.93
2022-10-01T14:59:01.694Z,1.20
2022-10-01T15:01:28.646Z,1.30
2022-10-01T15:03:55.318Z,1.10
2022-10-01T15:06:24.373Z,1.27
2022-10-01T15:08:52.955Z,1.40
2022-10-01T15:11:24.793Z,1.23
2022-10-01T15:13:54.372Z,1.52
2022-10-01T15:16:24.962Z,1.30
2022-10-01T15:18:56.771Z,1.50
2022-10-01T15:21:26.151Z,1.10
2022-10-01T15:23:52.981Z,1.58
2022-10-01T15:26:23.394Z,1.48
2022-10-01T15:28:49.985Z,1.50
2022-10-01T15:31:16.758Z,1.00
2022-10-01T15:33:43.560Z,1.27
2022-10-01T15:36:17.378Z,1.27
2022-10-01T15:38:45.771Z,1.17
2022-10-01T15:41:31.633Z,1.25
2022-10-01T15:44:03.846Z,1.52
2022-10-01T15:46:34.835Z,1.90
2022-10-01T15:49:10.674Z,2.00
2022-10-01T15:51:43.301Z,1.95
2022-10-01T15:54:15.565Z,1.40
2022-10-01T15:56:48.573Z,1.70
2022-10-01T15:59:20.496Z,1.33
2022-10-01T16:01:46.950Z,2.00
2022-10-01T16:04:14.671Z,1.55
2022-10-01T16:06:43.856Z,1.45
2022-10-01T16:09:19.476Z,1.95
2022-10-01T16:11:57.954Z,1.40
2022-10-01T16:14:36.527Z,1.50
2022-10-01T16:17:18.143Z,1.50
2022-10-01T16:19:46.267Z,1.40
2022-10-01T16:22:34.778Z,1.55
2022-10-01T16:25:03.967Z,1.40
2022-10-01T16:27:50.906Z,1.38
2022-10-01T16:30:29.621Z,1.60
2022-10-01T16:32:57.935Z,1.60
2022-10-01T16:35:26.815Z,1.63
2022-10-01T16:37:56.020Z,2.27
2022-10-01T16:40:25.520Z,1.60
2022-10-01T16:42:53.218Z,1.63
2022-10-01T16:45:25.638Z,2.08
2022-10-01T16:47:53.335Z,1.73
2022-10-01T16:50:21.836Z,1.77
2022-10-01T16:52:52.476Z,1.67
2022-10-01T16:55:22.946Z,1.60
2022-10-01T16:57:50.520Z,2.03
2022-10-01T17:00:19.476Z,1.58
2022-10-01T17:02:45.996Z,1.30
2022-10-01T17:05:20.009Z,1.55
2022-10-01T17:07:46.402Z,1.52
2022-10-01T17:10:13.552Z,1.60
2022-10-01T17:12:41.195Z,1.88
2022-10-01T17:15:07.943Z,1.57
2022-10-01T17:17:34.279Z,2.00
2022-10-01T17:20:00.699Z,1.60
2022-10-01T17:22:27.043Z,1.67
2022-10-01T17:24:53.375Z,1.75
2022-10-01T17:27:19.824Z,1.80
2022-10-01T17:29:48.056Z,2.38
2022-10-01T17:32:18.599Z,1.60
2022-10-01T17:34:45.815Z,1.88
2022-10-01T17:37:12.743Z,2.25
2022-10-01T17:39:40.929Z,1.80
2022-10-01T17:42:07.304Z,1.83
2022-10-01T17:44:33.641Z,1.63
2022-10-01T17:46:59.996Z,1.85
2022-10-01T17:49:26.415Z,1.80
2022-10-01T17:51:53.410Z,1.53
2022-10-01T17:54:22.568Z,1.77
2022-10-01T17:56:51.998Z,2.00
2022-10-01T17:59:18.983Z,1.98
2022-10-01T18:01:45.417Z,2.28
2022-10-01T18:04:14.437Z,2.10
2022-10-01T18:06:41.344Z,1.70
2022-10-01T18:09:07.699Z,1.95
2022-10-01T18:11:34.117Z,1.98
2022-10-01T18:14:00.477Z,1.75
2022-10-01T18:16:27.224Z,1.60
2022-10-01T18:21:48.652Z,1.63
2022-10-01T18:24:16.135Z,1.73
2022-10-01T18:26:42.556Z,1.50
2022-10-01T18:29:14.532Z,1.50
2022-10-01T18:31:41.335Z,1.85
2022-10-01T18:34:18.760Z,1.60
2022-10-01T18:37:03.351Z,1.52
2022-10-01T18:39:48.971Z,1.50
2022-10-01T18:42:21.144Z,1.57
2022-10-01T18:44:55.263Z,1.58
2022-10-01T18:48:06.664Z,1.83
2022-10-01T18:51:00.128Z,1.83
2022-10-01T18:53:48.588Z,1.83
2022-10-01T18:56:26.131Z,1.67
2022-10-01T18:59:13.903Z,1.90
2022-10-01T19:02:02.084Z,1.58
2022-10-01T19:04:49.054Z,1.50
2022-10-01T19:07:39.933Z,1.48
2022-10-01T19:10:12.209Z,1.57
2022-10-01T19:12:59.883Z,1.20
2022-10-01T19:15:41.440Z,1.35
2022-10-01T19:18:41.223Z,1.40
2022-10-01T19:21:23.864Z,1.38
2022-10-01T19:24:14.260Z,1.20
2022-10-01T19:27:01.987Z,1.23
2022-10-01T19:29:46.840Z,1.58
2022-10-01T19:32:19.276Z,1.75
2022-10-01T19:34:52.926Z,1.50
2022-10-01T19:37:41.368Z,1.60
2022-10-01T19:40:21.943Z,1.10
2022-10-01T19:42:59.313Z,1.77
2022-10-01T19:45:37.984Z,1.75
2022-10-01T19:48:41.331Z,1.33
2022-10-01T19:51:12.397Z,1.77
2022-10-01T19:53:44.001Z,1.40
2022-10-01T19:56:18.580Z,1.50
2022-10-01T19:58:45.866Z,1.98
2022-10-01T20:01:19.179Z,1.20
2022-10-01T20:04:02.208Z,1.53
2022-10-01T20:06:31.172Z,1.55
2022-10-01T20:09:01.262Z,1.55
2022-10-01T20:11:48.796Z,1.63
2022-10-01T20:14:41.499Z,1.25
2022-10-01T20:17:28.633Z,1.50
2022-10-01T20:20:10.122Z,1.30
2022-10-01T20:23:01.639Z,1.75
2022-10-01T20:25:40.673Z,1.38
2022-10-01T20:28:26.008Z,1.55
2022-10-01T20:30:58.294Z,1.67
2022-10-01T20:33:50.788Z,2.63
2022-10-01T20:36:26.066Z,2.50
2022-10-01T20:39:04.141Z,2.38
2022-10-01T20:41:42.282Z,1.80
2022-10-01T20:44:14.129Z,2.03
2022-10-01T20:46:45.509Z,1.70
2022-10-01T20:49:54.924Z,1.48
2022-10-01T20:52:37.688Z,1.70
2022-10-01T20:55:13.492Z,1.50
2022-10-01T20:57:47.900Z,1.70
2022-10-01T21:00:18.697Z,1.45
2022-10-01T21:02:59.276Z,1.17
2022-10-01T21:05:43.087Z,1.70
2022-10-01T21:08:20.952Z,1.60
2022-10-01T21:10:52.473Z,2.00
2022-10-01T21:13:31.054Z,1.77
2022-10-01T21:16:00.444Z,1.50
2022-10-01T21:18:44.908Z,1.35
2022-10-01T21:21:32.855Z,1.45
2022-10-01T21:24:15.361Z,1.60
2022-10-01T21:27:20.247Z,1.58
2022-10-01T21:30:01.983Z,1.02
2022-10-01T21:32:47.028Z,1.10
2022-10-01T21:35:17.752Z,1.13
2022-10-01T21:38:10.513Z,1.13
2022-10-01T21:40:39.747Z,0.80
2022-10-01T21:43:22.853Z,1.10
2022-10-01T21:46:15.766Z,0.80
2022-10-01T21:49:09.589Z,0.60
2022-10-01T21:51:58.427Z,0.60
2022-10-01T21:54:49.407Z,0.80
2022-10-01T21:57:34.446Z,0.85
2022-10-01T22:00:22.874Z,0.90
2022-10-01T22:03:22.208Z,1.00
2022-10-01T22:06:16.355Z,1.20
2022-10-01T22:09:25.624Z,0.60
2022-10-01T22:11:56.103Z,0.88
2022-10-01T22:14:22.861Z,1.00
2022-10-01T22:16:57.772Z,1.30
2022-10-01T22:19:37.522Z,1.50
2022-10-01T22:22:14.555Z,1.40
2022-10-01T22:24:47.983Z,2.08
2022-10-01T22:27:27.668Z,2.05
2022-10-01T22:30:01.913Z,2.03
2022-10-01T22:32:39.667Z,2.17
2022-10-01T22:35:18.149Z,2.22
2022-10-01T22:38:00.108Z,2.15
2022-10-01T22:40:35.825Z,2.50
2022-10-01T22:43:08.167Z,2.58
2022-10-01T22:45:55.599Z,2.33
2022-10-01T22:48:39.268Z,2.75
2022-10-01T22:51:34.522Z,1.90
2022-10-01T22:54:26.404Z,2.50
2022-10-01T22:57:14.444Z,2.35
2022-10-01T22:59:56.600Z,3.03
2022-10-01T23:02:32.764Z,2.53
2022-10-01T23:05:06.069Z,2.72
2022-10-01T23:07:52.035Z,3.33
2022-10-01T23:10:27.903Z,2.65
2022-10-01T23:13:06.388Z,3.00
2022-10-01T23:15:52.569Z,2.70
2022-10-01T23:18:27.780Z,2.65
2022-10-01T23:21:15.198Z,2.60
2022-10-01T23:23:53.984Z,2.88
2022-10-01T23:26:25.497Z,2.80
2022-10-01T23:29:16.398Z,2.20
2022-10-01T23:32:27.123Z,2.13
2022-10-01T23:35:13.162Z,2.95
2022-10-01T23:37:45.599Z,3.00
2022-10-01T23:40:16.419Z,3.27
2022-10-01T23:42:55.180Z,3.00
2022-10-01T23:45:34.026Z,3.03
2022-10-01T23:48:08.448Z,2.90
2022-10-01T23:50:43.709Z,3.70
2022-10-01T23:53:15.237Z,3.80
2022-10-01T23:56:14.167Z,3.30
2022-10-01T23:58:46.129Z,3.50
